Time;durP1;ratioP1;P1;durP2;ratioP2;P2;SDS_P1;SDS_P2;PMS_P1;PMS_P2;Temp;Humidity;BMP_temperature;BMP_pressure;BME280_temperature;BME280_humidity;BME280_pressure;Samples;Min_cycle;Max_cycle;Signal;HPM_P1;HPM_P2
2022/04/14 11:04:35;;;;;;;5.22;3.03;;;;;;;;;;7547462;22;1548617;-81
2022/04/14 11:07:38;;;;;;;7.25;3.00;;;;;;;;;;7650673;23;20026;-82
2022/04/14 11:10:52;;;;;;;6.70;3.45;;;;;;;;;;7612603;23;20096;-80
2022/04/14 11:14:08;;;;;;;9.75;3.10;;;;;;;;;;7651251;23;20689;-83
2022/04/14 11:17:26;;;;;;;9.00;3.30;;;;;;;;;;7651488;23;20021;-82
2022/04/14 11:20:49;;;;;;;5.35;3.00;;;;;;;;;;7648709;23;20396;-84
2022/04/14 11:23:54;;;;;;;3.65;3.00;;;;;;;;;;7651188;23;20104;-82
2022/04/14 11:27:08;;;;;;;10.27;3.80;;;;;;;;;;7650430;23;20017;-82
2022/04/14 11:30:38;;;;;;;7.88;4.40;;;;;;;;;;7652816;23;20019;-82
2022/04/14 11:33:43;;;;;;;10.50;3.78;;;;;;;;;;7622368;23;20072;-83
2022/04/14 11:36:47;;;;;;;6.80;3.53;;;;;;;;;;7612410;23;20320;-84
2022/04/14 11:40:10;;;;;;;10.85;4.35;;;;;;;;;;7613206;23;20024;-84
2022/04/14 11:43:14;;;;;;;7.50;4.35;;;;;;;;;;7625338;23;20027;-81
2022/04/14 11:46:38;;;;;;;12.48;8.60;;;;;;;;;;7623552;23;20318;-80
2022/04/14 11:49:41;;;;;;;13.45;8.93;;;;;;;;;;7611913;23;20017;-80
2022/04/14 11:52:44;;;;;;;11.68;4.60;;;;;;;;;;7638746;23;20069;-82
2022/04/14 11:55:48;;;;;;;9.48;4.32;;;;;;;;;;7639840;23;20092;-81
2022/04/14 11:58:52;;;;;;;6.85;4.25;;;;;;;;;;7612585;23;20022;-81
2022/04/14 12:01:55;;;;;;;9.95;4.90;;;;;;;;;;7638326;23;20014;-81
2022/04/14 12:04:58;;;;;;;10.57;3.85;;;;;;;;;;7619630;23;20014;-81
2022/04/14 12:08:09;;;;;;;5.63;3.60;;;;;;;;;;7646187;23;20024;-81
2022/04/14 12:11:16;;;;;;;6.95;4.13;;;;;;;;;;7634265;23;20068;-82
2022/04/14 12:14:19;;;;;;;7.45;4.10;;;;;;;;;;7646096;23;20022;-81
2022/04/14 12:17:23;;;;;;;5.00;3.78;;;;;;;;;;7636716;23;20025;-81
2022/04/14 12:20:34;;;;;;;7.55;3.85;;;;;;;;;;7634494;23;20022;-82
2022/04/14 12:23:46;;;;;;;8.63;4.88;;;;;;;;;;7651357;23;20029;-82
2022/04/14 12:26:50;;;;;;;7.18;3.97;;;;;;;;;;7647639;23;20049;-82
2022/04/14 12:29:54;;;;;;;7.55;3.90;;;;;;;;;;7633014;23;20348;-82
2022/04/14 12:33:00;;;;;;;6.75;5.32;;;;;;;;;;7634066;23;20389;-82
2022/04/14 12:36:08;;;;;;;9.68;4.63;;;;;;;;;;7646661;23;20022;-83
2022/04/14 12:39:17;;;;;;;8.80;4.30;;;;;;;;;;7636295;23;20029;-81
2022/04/14 12:42:29;;;;;;;6.18;4.28;;;;;;;;;;7647978;23;20029;-82
2022/04/14 12:45:37;;;;;;;5.68;3.80;;;;;;;;;;7650856;23;20562;-82
2022/04/14 12:48:40;;;;;;;8.38;4.18;;;;;;;;;;7649795;23;20022;-83
2022/04/14 12:51:45;;;;;;;5.13;3.80;;;;;;;;;;7636767;23;20498;-83
2022/04/14 12:54:49;;;;;;;8.02;3.75;;;;;;;;;;7649846;23;20463;-83
2022/04/14 12:58:09;;;;;;;6.30;3.05;;;;;;;;;;7637595;23;20096;-83
2022/04/14 13:01:13;;;;;;;7.35;3.50;;;;;;;;;;7649299;23;20025;-82
2022/04/14 13:04:16;;;;;;;;;;;;;;;;;;7637355;23;20028;-82
2022/04/14 13:07:20;;;;;;;7.07;3.50;;;;;;;;;;7634566;23;19917;-81
2022/04/14 13:10:27;;;;;;;8.95;3.63;;;;;;;;;;7635683;23;20416;-83
2022/04/14 13:13:31;;;;;;;8.70;2.95;;;;;;;;;;7647272;23;20017;-82
2022/04/14 13:16:37;;;;;;;4.40;2.72;;;;;;;;;;7645645;23;20021;-83
2022/04/14 13:19:41;;;;;;;8.15;3.25;;;;;;;;;;7635646;23;20399;-82
2022/04/14 13:22:47;;;;;;;4.20;2.60;;;;;;;;;;7647328;23;20037;-84
2022/04/14 13:25:51;;;;;;;7.28;3.28;;;;;;;;;;7633360;23;20017;-83
2022/04/14 13:28:54;;;;;;;4.00;2.90;;;;;;;;;;7634548;23;20045;-82
2022/04/14 13:32:01;;;;;;;3.58;2.70;;;;;;;;;;7647293;23;20022;-83
2022/04/14 13:35:07;;;;;;;3.58;2.80;;;;;;;;;;7637886;23;20100;-83
2022/04/14 13:38:10;;;;;;;3.83;2.47;;;;;;;;;;7634217;23;20028;-82
2022/04/14 13:41:13;;;;;;;8.15;2.75;;;;;;;;;;7636511;23;20251;-82
2022/04/14 13:44:16;;;;;;;10.00;2.80;;;;;;;;;;7634925;23;20688;-82
2022/04/14 13:47:20;;;;;;;6.38;3.20;;;;;;;;;;7634428;23;20087;-82
2022/04/14 13:50:24;;;;;;;4.35;3.03;;;;;;;;;;7636034;23;20022;-82
2022/04/14 13:53:29;;;;;;;7.00;2.55;;;;;;;;;;7648725;23;20044;-83
2022/04/14 13:56:32;;;;;;;4.13;2.40;;;;;;;;;;7634047;23;20033;-83
2022/04/14 13:59:35;;;;;;;3.53;2.55;;;;;;;;;;7633382;23;20104;-83
2022/04/14 14:02:39;;;;;;;6.20;2.67;;;;;;;;;;7636280;23;20022;-83
2022/04/14 14:05:42;;;;;;;8.52;2.80;;;;;;;;;;7633881;23;20025;-84
2022/04/14 14:08:48;;;;;;;6.28;2.58;;;;;;;;;;7644760;23;20021;-82
2022/04/14 14:11:52;;;;;;;6.47;2.42;;;;;;;;;;7635762;23;20024;-82
2022/04/14 14:14:55;;;;;;;3.92;2.45;;;;;;;;;;7634784;23;20017;-82
2022/04/14 14:18:00;;;;;;;10.38;2.67;;;;;;;;;;7632958;23;20021;-83
2022/04/14 14:21:03;;;;;;;5.75;2.67;;;;;;;;;;7635059;23;20368;-82
2022/04/14 14:24:08;;;;;;;5.63;2.63;;;;;;;;;;7646883;23;20481;-82
2022/04/14 14:27:14;;;;;;;8.40;2.78;;;;;;;;;;7646216;23;20021;-83
2022/04/14 14:30:17;;;;;;;8.07;2.33;;;;;;;;;;7634133;23;20112;-82
2022/04/14 14:33:21;;;;;;;5.60;2.83;;;;;;;;;;7634364;23;20056;-81
2022/04/14 14:36:24;;;;;;;7.13;2.83;;;;;;;;;;7634536;23;20041;-83
2022/04/14 14:39:31;;;;;;;5.50;2.90;;;;;;;;;;7633684;23;20025;-83
2022/04/14 14:42:34;;;;;;;9.07;2.70;;;;;;;;;;7647527;23;20024;-82
2022/04/14 14:45:45;;;;;;;6.18;2.47;;;;;;;;;;7648206;23;20017;-82
2022/04/14 14:48:50;;;;;;;5.70;2.58;;;;;;;;;;7633915;23;20024;-83
2022/04/14 14:51:53;;;;;;;5.43;2.92;;;;;;;;;;7633906;23;20025;-82
2022/04/14 14:54:56;;;;;;;6.47;3.10;;;;;;;;;;7636718;23;20013;-83
2022/04/14 15:01:19;;;;;;;7.43;2.50;;;;;;;;;;7644654;23;20021;-83
2022/04/14 15:04:26;;;;;;;9.00;2.80;;;;;;;;;;7639179;23;20018;-83
2022/04/14 15:07:29;;;;;;;6.60;3.35;;;;;;;;;;7634556;23;20028;-83
2022/04/14 15:10:32;;;;;;;7.90;3.45;;;;;;;;;;7634415;23;20021;-82
2022/04/14 15:13:35;;;;;;;7.15;3.55;;;;;;;;;;7632345;23;20514;-82
2022/04/14 15:16:38;;;;;;;5.60;3.80;;;;;;;;;;7634035;23;20336;-82
2022/04/14 15:19:43;;;;;;;6.28;3.47;;;;;;;;;;7634496;23;20025;-82
2022/04/14 15:22:45;;;;;;;;;;;;;;;;;;7634278;23;20028;-82
2022/04/14 15:25:48;;;;;;;11.27;3.35;;;;;;;;;;7633676;23;19916;-83
2022/04/14 15:28:52;;;;;;;7.88;3.15;;;;;;;;;;7635645;23;20018;-83
2022/04/14 15:31:55;;;;;;;6.72;3.17;;;;;;;;;;7633361;23;20105;-82
2022/04/14 15:34:59;;;;;;;7.05;3.40;;;;;;;;;;7633903;23;20071;-85
2022/04/14 15:38:04;;;;;;;7.63;3.38;;;;;;;;;;7635654;23;20096;-82
2022/04/14 15:41:08;;;;;;;7.47;3.03;;;;;;;;;;7633904;23;20467;-83
2022/04/14 15:44:11;;;;;;;9.73;2.70;;;;;;;;;;7633671;23;20022;-83
2022/04/14 15:47:14;;;;;;;5.57;2.83;;;;;;;;;;7635412;23;20340;-80
2022/04/14 15:50:18;;;;;;;6.28;2.53;;;;;;;;;;7635535;23;20100;-83
2022/04/14 15:53:21;;;;;;;5.00;2.17;;;;;;;;;;7632381;23;20341;-83
2022/04/14 15:56:24;;;;;;;5.72;2.33;;;;;;;;;;7634422;23;20096;-82
2022/04/14 15:59:27;;;;;;;5.13;2.97;;;;;;;;;;7636485;23;20037;-83
2022/04/14 16:02:32;;;;;;;8.27;2.08;;;;;;;;;;7648302;23;20096;-83
2022/04/14 16:05:37;;;;;;;3.47;2.10;;;;;;;;;;7634000;23;20017;-83
2022/04/14 16:08:40;;;;;;;4.13;2.20;;;;;;;;;;7638133;23;20527;-82
2022/04/14 16:15:03;;;;;;;4.70;2.13;;;;;;;;;;7647090;23;20104;-84
2022/04/14 16:18:07;;;;;;;7.50;2.25;;;;;;;;;;7636930;23;20013;-83
2022/04/14 16:21:11;;;;;;;8.20;2.50;;;;;;;;;;7637770;23;20024;-84
2022/04/14 16:24:17;;;;;;;3.72;2.00;;;;;;;;;;7637348;23;20022;-82
2022/04/14 16:27:20;;;;;;;5.22;2.33;;;;;;;;;;7647949;23;20463;-83
2022/04/14 16:30:24;;;;;;;7.35;2.17;;;;;;;;;;7636355;23;20017;-82
2022/04/14 16:33:27;;;;;;;5.55;2.55;;;;;;;;;;7637663;23;20021;-83
2022/04/14 16:36:34;;;;;;;7.90;2.40;;;;;;;;;;7647999;23;20018;-83
2022/04/14 16:39:41;;;;;;;4.60;2.37;;;;;;;;;;7635560;23;20022;-83
2022/04/14 16:42:45;;;;;;;5.55;2.35;;;;;;;;;;7648102;23;20248;-82
2022/04/14 16:45:48;;;;;;;5.25;2.25;;;;;;;;;;7636940;23;20048;-82
2022/04/14 16:48:53;;;;;;;6.75;2.47;;;;;;;;;;7647299;23;20022;-83
2022/04/14 16:51:58;;;;;;;4.40;2.17;;;;;;;;;;7637688;23;20092;-82
2022/04/14 16:55:01;;;;;;;6.43;2.40;;;;;;;;;;7637777;23;20292;-84
2022/04/14 16:58:04;;;;;;;12.60;2.70;;;;;;;;;;7633664;23;20487;-82
2022/04/14 17:01:07;;;;;;;8.90;3.30;;;;;;;;;;7637043;23;20475;-82
2022/04/14 17:04:11;;;;;;;9.55;3.05;;;;;;;;;;7635349;23;20096;-82
2022/04/14 17:07:15;;;;;;;8.13;3.90;;;;;;;;;;7635888;23;20445;-82
2022/04/14 17:10:18;;;;;;;15.82;4.13;;;;;;;;;;7635919;23;20045;-81
2022/04/14 17:13:21;;;;;;;11.88;4.38;;;;;;;;;;7637476;23;20021;-83
2022/04/14 17:16:24;;;;;;;11.88;4.53;;;;;;;;;;7637074;23;20029;-82
2022/04/14 17:19:27;;;;;;;9.55;3.33;;;;;;;;;;7633250;23;20028;-82
2022/04/14 17:25:52;;;;;;;12.48;3.35;;;;;;;;;;7649231;23;20463;-82
2022/04/14 17:28:55;;;;;;;13.27;3.05;;;;;;;;;;7635984;23;20027;-85
2022/04/14 17:31:59;;;;;;;10.85;2.83;;;;;;;;;;7635269;23;20018;-86
2022/04/14 17:35:02;;;;;;;12.15;2.58;;;;;;;;;;7635294;23;20081;-85
2022/04/14 17:38:07;;;;;;;8.32;3.20;;;;;;;;;;7636412;23;20392;-84
2022/04/14 17:41:10;;;;;;;15.02;4.95;;;;;;;;;;7634829;23;20119;-82
2022/04/14 17:44:13;;;;;;;8.55;3.92;;;;;;;;;;7634908;23;20025;-83
2022/04/14 17:47:16;;;;;;;13.32;4.10;;;;;;;;;;7636932;23;20021;-85
2022/04/14 17:50:22;;;;;;;9.60;2.95;;;;;;;;;;7646186;23;20364;-87
2022/04/14 17:53:26;;;;;;;13.95;4.20;;;;;;;;;;7634265;23;20024;-84
2022/04/14 17:56:29;;;;;;;7.47;2.80;;;;;;;;;;7634995;23;20022;-82
2022/04/14 17:59:32;;;;;;;5.68;2.78;;;;;;;;;;7634398;23;20021;-86
2022/04/14 18:02:38;;;;;;;9.68;2.80;;;;;;;;;;7634823;23;20025;-86
2022/04/14 18:05:40;;;;;;;6.15;2.70;;;;;;;;;;7638330;23;20068;-84
2022/04/14 18:08:45;;;;;;;7.43;2.50;;;;;;;;;;7634877;23;20021;-85
2022/04/14 18:11:48;;;;;;;10.02;3.53;;;;;;;;;;7632820;23;20441;-85
2022/04/14 18:14:52;;;;;;;13.70;3.70;;;;;;;;;;7635860;23;20017;-82
2022/04/14 18:17:55;;;;;;;9.40;3.20;;;;;;;;;;7635844;23;20457;-83
2022/04/14 18:20:58;;;;;;;17.00;6.38;;;;;;;;;;7635655;23;20322;-87
2022/04/14 18:24:02;;;;;;;17.70;8.77;;;;;;;;;;7633235;23;20021;-79
2022/04/14 18:27:10;;;;;;;24.70;12.10;;;;;;;;;;7648302;23;20017;-83
2022/04/14 18:30:16;;;;;;;12.02;6.72;;;;;;;;;;7648126;23;20436;-85
2022/04/14 18:33:21;;;;;;;14.18;6.95;;;;;;;;;;7645149;23;20023;-86
2022/04/14 18:36:24;;;;;;;19.17;7.40;;;;;;;;;;7635771;23;20381;-85
2022/04/14 18:39:29;;;;;;;13.60;6.10;;;;;;;;;;7636238;23;20130;-81
2022/04/14 18:42:34;;;;;;;15.40;4.63;;;;;;;;;;7647937;23;20444;-89
2022/04/14 18:45:37;;;;;;;9.90;4.45;;;;;;;;;;7634677;23;20053;-87
2022/04/14 18:48:40;;;;;;;9.70;5.03;;;;;;;;;;7637146;23;20041;-89
2022/04/14 18:51:44;;;;;;;13.88;5.28;;;;;;;;;;7638382;23;20017;-85
2022/04/14 18:54:48;;;;;;;16.15;5.88;;;;;;;;;;7638004;23;20017;-88
2022/04/14 18:57:51;;;;;;;11.10;4.27;;;;;;;;;;7639593;23;20017;-90
2022/04/14 19:00:57;;;;;;;14.13;4.95;;;;;;;;;;7647747;23;20021;-89
2022/04/14 19:04:01;;;;;;;8.32;3.97;;;;;;;;;;7632964;23;20025;-89
2022/04/14 19:07:07;;;;;;;10.23;4.10;;;;;;;;;;7647438;23;20340;-86
2022/04/14 19:10:11;;;;;;;10.90;4.10;;;;;;;;;;7634862;23;20021;-84
2022/04/14 19:13:17;;;;;;;12.18;4.55;;;;;;;;;;7646923;23;20025;-84
2022/04/14 19:16:23;;;;;;;11.40;5.57;;;;;;;;;;7644768;23;20397;-87
2022/04/14 19:19:26;;;;;;;11.55;5.63;;;;;;;;;;7635953;23;20021;-87
2022/04/14 19:22:32;;;;;;;13.65;5.70;;;;;;;;;;7646862;23;20026;-88
2022/04/14 19:25:36;;;;;;;15.50;5.57;;;;;;;;;;7632611;23;20041;-87
2022/04/14 19:28:39;;;;;;;12.23;4.63;;;;;;;;;;7642258;23;20348;-84
2022/04/14 19:31:42;;;;;;;9.10;4.65;;;;;;;;;;7634367;23;20101;-82
2022/04/14 19:34:46;;;;;;;11.65;4.60;;;;;;;;;;7632528;23;20068;-83
2022/04/14 19:37:49;;;;;;;10.32;6.15;;;;;;;;;;7633303;23;20072;-81
2022/04/14 19:40:54;;;;;;;15.38;5.95;;;;;;;;;;7636011;23;20024;-90
2022/04/14 19:43:57;;;;;;;14.40;5.57;;;;;;;;;;7635443;23;20360;-90
2022/04/14 19:47:01;;;;;;;9.30;4.88;;;;;;;;;;7634892;23;20017;-89
2022/04/14 19:50:05;;;;;;;8.65;4.63;;;;;;;;;;7634446;23;20044;-90
2022/04/14 19:53:08;;;;;;;8.23;4.13;;;;;;;;;;7634413;23;20022;-86
2022/04/14 19:56:13;;;;;;;9.10;4.00;;;;;;;;;;7633774;23;20045;-90
2022/04/14 19:59:16;;;;;;;14.07;4.55;;;;;;;;;;7639035;23;20018;-89
2022/04/14 20:02:21;;;;;;;8.73;3.63;;;;;;;;;;7640614;23;20035;-88
2022/04/14 20:05:24;;;;;;;11.32;4.90;;;;;;;;;;7638578;23;20022;-85
2022/04/14 20:08:28;;;;;;;9.90;3.83;;;;;;;;;;7634111;23;20091;-88
2022/04/14 20:11:33;;;;;;;8.20;4.15;;;;;;;;;;7634493;23;20018;-83
2022/04/14 20:14:36;;;;;;;10.60;3.60;;;;;;;;;;7634434;23;20017;-90
2022/04/14 20:17:39;;;;;;;12.40;4.03;;;;;;;;;;7637272;23;20017;-87
2022/04/14 20:20:42;;;;;;;10.32;4.47;;;;;;;;;;7634495;23;20092;-86
2022/04/14 20:23:45;;;;;;;14.80;4.13;;;;;;;;;;7634229;23;20325;-90
2022/04/14 20:26:49;;;;;;;8.63;4.15;;;;;;;;;;7634711;23;20028;-90
2022/04/14 20:29:53;;;;;;;12.70;4.15;;;;;;;;;;7637575;23;20065;-88
2022/04/14 20:32:58;;;;;;;7.18;3.63;;;;;;;;;;7646565;23;20021;-90
2022/04/14 20:36:02;;;;;;;7.13;4.13;;;;;;;;;;7637603;23;20025;-90
2022/04/14 20:39:05;;;;;;;7.85;3.83;;;;;;;;;;7634592;23;20096;-88
2022/04/14 20:42:10;;;;;;;12.63;4.10;;;;;;;;;;7637092;23;20028;-87
2022/04/14 20:45:13;;;;;;;10.43;4.72;;;;;;;;;;7636265;23;20075;-89
2022/04/14 20:48:17;;;;;;;9.13;4.03;;;;;;;;;;7632515;23;20074;-88
2022/04/14 20:51:31;;;;;;;8.70;3.92;;;;;;;;;;7647834;23;20152;-90
2022/04/14 20:54:34;;;;;;;9.32;4.35;;;;;;;;;;7638360;23;20104;-88
2022/04/14 20:57:38;;;;;;;9.70;4.22;;;;;;;;;;7637344;23;20576;-89
2022/04/14 21:00:42;;;;;;;10.75;4.18;;;;;;;;;;7635436;23;20022;-89
2022/04/14 21:03:45;;;;;;;14.00;4.50;;;;;;;;;;7611464;23;20516;-87
2022/04/14 21:06:48;;;;;;;8.98;4.10;;;;;;;;;;7637574;23;20025;-89
2022/04/14 21:09:51;;;;;;;11.05;4.47;;;;;;;;;;7635355;23;20097;-89
2022/04/14 21:12:56;;;;;;;9.98;4.57;;;;;;;;;;7635838;23;20039;-88
2022/04/14 21:15:59;;;;;;;8.75;3.60;;;;;;;;;;7637294;23;20025;-88
2022/04/14 21:19:02;;;;;;;12.50;4.22;;;;;;;;;;7635256;23;20030;-89
2022/04/14 21:22:05;;;;;;;10.23;4.70;;;;;;;;;;7634589;23;20045;-86
2022/04/14 21:25:09;;;;;;;15.13;4.93;;;;;;;;;;7637462;23;20025;-81
2022/04/14 21:28:15;;;;;;;9.85;4.20;;;;;;;;;;7649374;23;20040;-82
2022/04/14 21:31:19;;;;;;;9.27;3.88;;;;;;;;;;7632881;23;20025;-83
2022/04/14 21:34:24;;;;;;;7.25;4.13;;;;;;;;;;7643749;23;20021;-85
2022/04/14 21:37:27;;;;;;;7.05;3.95;;;;;;;;;;7635584;23;20076;-87
2022/04/14 21:40:30;;;;;;;7.25;4.07;;;;;;;;;;7635533;23;20516;-86
2022/04/14 21:43:34;;;;;;;6.80;3.83;;;;;;;;;;7634466;23;20072;-84
2022/04/14 21:46:38;;;;;;;8.43;3.75;;;;;;;;;;7635439;23;20100;-87
2022/04/14 21:49:41;;;;;;;8.73;3.70;;;;;;;;;;7636737;23;20333;-87
2022/04/14 21:52:44;;;;;;;5.97;3.83;;;;;;;;;;7633220;23;20098;-87
2022/04/14 21:55:47;;;;;;;7.97;3.70;;;;;;;;;;7638352;23;20465;-92
2022/04/14 21:58:52;;;;;;;8.55;4.35;;;;;;;;;;7657100;23;20008;-92
2022/04/14 22:01:55;;;;;;;10.45;4.22;;;;;;;;;;7650899;23;20021;-90
2022/04/14 22:04:58;;;;;;;8.50;3.55;;;;;;;;;;7637392;23;20028;-90
2022/04/14 22:08:07;;;;;;;9.30;3.40;;;;;;;;;;7653291;23;20017;-91
2022/04/14 22:11:12;;;;;;;6.88;3.88;;;;;;;;;;7656867;23;20029;-91
2022/04/14 22:14:17;;;;;;;10.05;4.00;;;;;;;;;;7652020;23;20013;-86
2022/04/14 22:17:20;;;;;;;7.53;3.90;;;;;;;;;;7635314;23;20091;-86
2022/04/14 22:20:23;;;;;;;8.30;4.00;;;;;;;;;;7635325;23;20028;-83
2022/04/14 22:23:26;;;;;;;8.50;4.43;;;;;;;;;;7634039;23;20017;-86
2022/04/14 22:26:29;;;;;;;8.57;4.28;;;;;;;;;;7635207;23;20099;-88
2022/04/14 22:29:33;;;;;;;38.88;19.95;;;;;;;;;;7635096;23;20041;-86
2022/04/14 22:32:36;;;;;;;11.32;4.90;;;;;;;;;;7632799;23;20021;-87
2022/04/14 22:35:40;;;;;;;10.93;4.88;;;;;;;;;;7635173;23;20104;-85
2022/04/14 22:38:45;;;;;;;12.32;4.50;;;;;;;;;;7647338;23;20022;-83
2022/04/14 22:41:48;;;;;;;9.20;4.10;;;;;;;;;;7634158;23;20021;-82
2022/04/14 22:44:54;;;;;;;8.25;4.53;;;;;;;;;;7643116;23;20030;-81
2022/04/14 22:47:57;;;;;;;10.15;4.03;;;;;;;;;;7633512;23;20107;-82
2022/04/14 22:51:00;;;;;;;8.27;4.20;;;;;;;;;;7634576;23;20021;-81
2022/04/14 22:54:04;;;;;;;7.00;3.70;;;;;;;;;;7629129;23;20504;-82
2022/04/14 22:57:08;;;;;;;8.10;3.92;;;;;;;;;;7631746;23;20442;-81
2022/04/14 23:00:13;;;;;;;9.13;4.07;;;;;;;;;;7607044;23;20037;-82
2022/04/14 23:03:16;;;;;;;11.07;4.30;;;;;;;;;;7629492;23;20021;-82
2022/04/14 23:06:19;;;;;;;9.45;4.57;;;;;;;;;;7632332;23;20017;-82
2022/04/14 23:09:22;;;;;;;6.32;3.63;;;;;;;;;;7632047;23;20017;-85
2022/04/14 23:12:25;;;;;;;10.55;4.10;;;;;;;;;;7631045;23;20383;-84
2022/04/14 23:15:36;;;;;;;6.65;3.63;;;;;;;;;;7632239;23;20024;-85
2022/04/14 23:18:39;;;;;;;10.13;4.43;;;;;;;;;;7644357;23;20017;-85
2022/04/14 23:21:43;;;;;;;7.20;3.90;;;;;;;;;;7632958;23;20337;-81
2022/04/14 23:24:46;;;;;;;9.40;3.60;;;;;;;;;;7633725;23;20092;-81
2022/04/14 23:27:49;;;;;;;8.02;3.78;;;;;;;;;;7634770;23;20024;-80
2022/04/14 23:30:53;;;;;;;7.93;3.58;;;;;;;;;;7634242;23;20310;-80
2022/04/14 23:33:56;;;;;;;9.23;3.67;;;;;;;;;;7632391;23;20675;-80
2022/04/14 23:36:59;;;;;;;7.78;3.60;;;;;;;;;;7633488;23;20017;-79
2022/04/14 23:40:17;;;;;;;7.40;3.60;;;;;;;;;;7636536;23;20028;-80
2022/04/14 23:43:22;;;;;;;5.47;3.42;;;;;;;;;;7648184;23;20018;-84
2022/04/14 23:46:27;;;;;;;8.02;4.05;;;;;;;;;;7633594;23;20021;-84
2022/04/14 23:49:30;;;;;;;12.02;3.75;;;;;;;;;;7634397;23;20017;-82
2022/04/14 23:52:33;;;;;;;9.30;3.60;;;;;;;;;;7634389;23;20021;-82
2022/04/14 23:55:36;;;;;;;8.75;4.30;;;;;;;;;;7634090;23;20100;-81
2022/04/14 23:58:39;;;;;;;11.82;4.93;;;;;;;;;;7633320;23;20437;-82
